Terminal Aerodrome Forecast
Issued by NWS Sterling, VA

Home | Current Version | Previous Version | Text Only | Print | Product List | Glossary On
Versions: 1 2 3 4 5 6 7 8 9 10 11 12 13 14 15 16 17 18 19 20 21 22 23 24 25 26 27 28 29 30 31 32 33 34 35 36 37 38 39 40 41 42 43 44 45 46 47 48
000
FTUS41 KLWX 260837 AAF
TAFDCA
TAF AMD
KDCA 260837Z 2609/2712 35006KT 4SM -DZ BR BKN005 OVC015
     FM261500 33005KT P6SM SCT008 OVC015
     FM262000 15004KT P6SM SCT060
     FM270100 VRB03KT P6SM SCT060
     FM270500 VRB03KT P6SM FEW008 SCT015 BKN060=

USA.gov is the U.S. government's official web portal to all federal, state and local government web resources and services.